Time;durP1;ratioP1;P1;durP2;ratioP2;P2;SDS_P1;SDS_P2;PMS_P1;PMS_P2;Temp;Humidity;BMP_temperature;BMP_pressure;BME280_temperature;BME280_humidity;BME280_pressure;Samples;Min_cycle;Max_cycle;Signal;HPM_P1;HPM_P2
2021/05/20 00:00:06;;;;;;;0.70;0.70;;;12.70;88.20;;;;;;6285457;28;20480;-61
2021/05/20 00:03:09;;;;;;;2.80;0.80;;;12.70;88.50;;;;;;6299492;28;20815;-61
2021/05/20 00:06:12;;;;;;;0.80;0.80;;;12.70;88.80;;;;;;6299262;28;20872;-61
2021/05/20 00:09:15;;;;;;;0.70;0.70;;;12.60;89.80;;;;;;6298854;28;20476;-61
2021/05/20 00:12:18;;;;;;;0.93;0.70;;;12.70;89.60;;;;;;6299123;28;20477;-61
2021/05/20 00:15:21;;;;;;;0.80;0.70;;;12.80;89.30;;;;;;6298899;28;20552;-61
2021/05/20 00:18:24;;;;;;;0.83;0.83;;;12.90;89.20;;;;;;6298847;28;20461;-61
2021/05/20 00:21:27;;;;;;;0.70;0.60;;;12.90;88.80;;;;;;6299037;28;20470;-61
2021/05/20 00:24:30;;;;;;;2.20;0.60;;;13.00;89.20;;;;;;6298391;28;20480;-60
2021/05/20 00:27:32;;;;;;;0.77;0.77;;;13.00;89.30;;;;;;6297298;28;20461;-60
2021/05/20 00:30:35;;;;;;;0.50;0.50;;;13.00;88.90;;;;;;6298664;28;20483;-62
2021/05/20 00:33:39;;;;;;;0.60;0.60;;;13.00;88.60;;;;;;6300173;28;20472;-60
2021/05/20 00:36:41;;;;;;;1.67;0.90;;;13.00;88.50;;;;;;6300043;28;20529;-59
2021/05/20 00:39:44;;;;;;;0.80;0.70;;;12.90;88.70;;;;;;6299499;28;20932;-59
2021/05/20 00:42:47;;;;;;;2.00;0.90;;;12.70;89.10;;;;;;6299870;28;20469;-60
2021/05/20 00:45:50;;;;;;;2.80;0.80;;;12.60;89.60;;;;;;6299597;28;20461;-59
2021/05/20 00:48:54;;;;;;;1.20;1.03;;;12.60;90.10;;;;;;6299607;28;20476;-59
2021/05/20 00:51:56;;;;;;;2.80;0.90;;;12.60;90.40;;;;;;6299332;28;20473;-59
2021/05/20 00:55:00;;;;;;;2.40;1.40;;;12.40;90.80;;;;;;6299782;28;20499;-59
2021/05/20 00:58:05;;;;;;;1.93;0.70;;;12.30;91.30;;;;;;6299417;28;20477;-59
2021/05/20 01:01:09;;;;;;;1.20;0.63;;;12.30;91.00;;;;;;6299280;28;20485;-58
2021/05/20 01:04:13;;;;;;;1.10;1.00;;;12.30;90.90;;;;;;6290002;28;20483;-59
2021/05/20 01:07:15;;;;;;;1.00;0.90;;;12.30;90.90;;;;;;6298870;28;20816;-59
2021/05/20 01:10:18;;;;;;;0.70;0.70;;;12.30;90.60;;;;;;6298792;28;20476;-59
2021/05/20 01:13:22;;;;;;;1.33;0.90;;;12.20;91.00;;;;;;6298890;28;20515;-59
2021/05/20 01:16:24;;;;;;;1.90;0.87;;;12.20;90.80;;;;;;6299154;28;20481;-59
2021/05/20 01:19:28;;;;;;;0.53;0.53;;;12.20;91.00;;;;;;6298901;28;20484;-59
2021/05/20 01:22:32;;;;;;;0.90;0.80;;;12.10;91.00;;;;;;6299094;28;20492;-59
2021/05/20 01:25:36;;;;;;;1.57;0.70;;;12.20;90.70;;;;;;6299022;28;20453;-59
2021/05/20 01:28:39;;;;;;;0.50;0.50;;;12.20;90.10;;;;;;6298439;28;20438;-60
2021/05/20 01:31:42;;;;;;;0.70;0.50;;;12.20;90.10;;;;;;6298695;28;21026;-59
2021/05/20 01:34:55;;;;;;;0.70;0.70;;;12.30;90.00;;;;;;6298967;28;20491;-59
2021/05/20 01:41:33;;;;;;;1.27;1.03;;;12.30;89.20;;;;;;6299228;28;20461;-61
2021/05/20 01:44:35;;;;;;;0.83;0.83;;;12.10;89.20;;;;;;6298577;28;20468;-59
2021/05/20 01:47:38;;;;;;;0.80;0.80;;;12.10;89.80;;;;;;6299081;28;20465;-60
2021/05/20 01:50:41;;;;;;;1.17;0.80;;;12.10;89.60;;;;;;6298654;28;20484;-60
2021/05/20 01:53:46;;;;;;;0.80;0.80;;;12.10;89.60;;;;;;6298539;28;20487;-60
2021/05/20 01:56:49;;;;;;;0.77;0.77;;;12.10;90.00;;;;;;6298618;28;20980;-60
2021/05/20 01:59:52;;;;;;;1.10;0.80;;;12.10;90.10;;;;;;6298413;28;20496;-60
2021/05/20 02:02:54;;;;;;;1.27;1.00;;;12.10;90.20;;;;;;6298563;28;20465;-60
2021/05/20 02:05:57;;;;;;;0.70;0.70;;;12.10;90.50;;;;;;6293740;28;20469;-60
2021/05/20 02:09:02;;;;;;;0.90;0.87;;;12.10;90.30;;;;;;6298873;28;20465;-60
2021/05/20 02:12:05;;;;;;;0.73;0.67;;;12.10;90.20;;;;;;6298113;28;20800;-60
2021/05/20 02:15:10;;;;;;;1.50;0.90;;;12.00;90.30;;;;;;6298407;28;20469;-60
2021/05/20 02:18:13;;;;;;;0.90;0.90;;;12.00;90.50;;;;;;6297987;28;20476;-59
2021/05/20 02:21:16;;;;;;;0.90;0.80;;;12.00;90.50;;;;;;6297796;28;20480;-60
2021/05/20 02:24:19;;;;;;;1.77;1.67;;;11.90;90.70;;;;;;6300768;28;20554;-60
2021/05/20 02:27:22;;;;;;;1.03;0.90;;;11.90;90.90;;;;;;6302973;28;20480;-60
2021/05/20 02:30:26;;;;;;;1.00;1.00;;;11.90;91.20;;;;;;6301674;28;20464;-60
2021/05/20 02:33:28;;;;;;;0.93;0.87;;;11.80;91.50;;;;;;6301146;28;20738;-60
2021/05/20 02:36:32;;;;;;;1.20;1.10;;;11.80;91.40;;;;;;6300613;28;20574;-60
2021/05/20 02:39:35;;;;;;;1.40;1.30;;;11.80;91.40;;;;;;6300909;28;20461;-60
2021/05/20 02:42:39;;;;;;;1.30;1.20;;;11.80;91.00;;;;;;6301589;28;20465;-60
2021/05/20 02:45:42;;;;;;;1.30;1.20;;;11.70;91.20;;;;;;6301751;28;20461;-60
2021/05/20 02:48:44;;;;;;;1.47;1.10;;;11.70;91.40;;;;;;6302438;28;20480;-60
2021/05/20 02:51:47;;;;;;;0.93;0.90;;;11.70;91.20;;;;;;6302156;28;20481;-60
2021/05/20 02:54:51;;;;;;;1.17;1.07;;;11.70;91.10;;;;;;6302528;28;20473;-60
2021/05/20 02:57:55;;;;;;;2.80;1.03;;;11.70;90.80;;;;;;6302092;28;20477;-60
2021/05/20 03:00:58;;;;;;;1.17;1.07;;;11.80;90.50;;;;;;6302211;28;20936;-59
2021/05/20 03:04:00;;;;;;;1.20;0.80;;;11.80;90.50;;;;;;6301416;28;20932;-60
2021/05/20 03:07:05;;;;;;;2.10;1.03;;;11.90;90.40;;;;;;6302184;28;20480;-60
2021/05/20 03:10:09;;;;;;;1.07;0.97;;;11.90;90.50;;;;;;6298853;28;20956;-60
2021/05/20 03:13:12;;;;;;;1.33;1.23;;;11.90;90.60;;;;;;6291493;28;20976;-60
2021/05/20 03:16:15;;;;;;;0.90;0.90;;;12.10;90.80;;;;;;6301599;28;20488;-60
2021/05/20 03:19:18;;;;;;;0.90;0.90;;;12.20;90.20;;;;;;6301514;28;20476;-60
2021/05/20 03:22:21;;;;;;;0.70;0.70;;;12.00;90.10;;;;;;6301647;28;20473;-60
2021/05/20 03:25:26;;;;;;;1.83;1.10;;;11.90;90.30;;;;;;6301400;28;20888;-60
2021/05/20 03:28:28;;;;;;;1.30;1.20;;;11.90;90.50;;;;;;6301610;28;20469;-60
2021/05/20 03:31:31;;;;;;;1.10;1.10;;;11.90;90.50;;;;;;6301197;28;20476;-60
2021/05/20 03:34:34;;;;;;;2.60;1.50;;;12.00;90.60;;;;;;6300912;28;20468;-60
2021/05/20 03:37:37;;;;;;;2.70;1.17;;;12.10;90.60;;;;;;6300727;28;20824;-60
2021/05/20 03:40:40;;;;;;;0.80;0.80;;;12.00;91.10;;;;;;6301689;28;20461;-60
2021/05/20 03:43:43;;;;;;;2.50;1.30;;;12.00;91.60;;;;;;6300996;28;20441;-61
2021/05/20 03:47:03;;;;;;;1.93;1.30;;;11.90;91.90;;;;;;6301011;28;20809;-60
2021/05/20 03:50:07;;;;;;;1.67;1.20;;;11.80;92.30;;;;;;6300983;28;20811;-60
2021/05/20 03:53:09;;;;;;;1.63;1.53;;;11.80;92.60;;;;;;6301294;28;20465;-60
2021/05/20 03:56:13;;;;;;;1.40;1.30;;;11.80;92.50;;;;;;6300747;28;20471;-60
2021/05/20 03:59:16;;;;;;;4.03;1.53;;;11.80;92.70;;;;;;6300718;28;20470;-60
2021/05/20 04:02:18;;;;;;;2.40;1.60;;;11.80;92.50;;;;;;6300813;28;20808;-60
2021/05/20 04:05:21;;;;;;;1.10;1.00;;;11.90;92.40;;;;;;6300516;28;20472;-60
2021/05/20 04:08:24;;;;;;;1.20;1.10;;;12.00;92.40;;;;;;6300531;28;20471;-60
2021/05/20 04:11:29;;;;;;;1.37;1.30;;;12.00;92.30;;;;;;6300420;28;20480;-60
2021/05/20 04:14:31;;;;;;;3.33;1.60;;;12.10;92.10;;;;;;6295401;28;20971;-59
2021/05/20 04:17:34;;;;;;;1.50;1.40;;;12.10;92.10;;;;;;6299865;28;20481;-60
2021/05/20 04:20:37;;;;;;;4.50;1.80;;;12.10;92.00;;;;;;6300570;28;20797;-60
2021/05/20 04:23:43;;;;;;;2.60;1.80;;;12.10;92.00;;;;;;6299809;28;20987;-60
2021/05/20 04:26:46;;;;;;;3.73;1.53;;;12.10;92.00;;;;;;6300515;28;20483;-60
2021/05/20 04:29:49;;;;;;;1.50;1.40;;;12.20;92.00;;;;;;6300014;28;20484;-59
2021/05/20 04:32:54;;;;;;;2.33;1.40;;;12.30;92.00;;;;;;6299731;28;20810;-60
2021/05/20 04:35:56;;;;;;;1.20;1.10;;;12.40;92.00;;;;;;6299838;28;20486;-60
2021/05/20 04:38:59;;;;;;;2.50;1.30;;;12.60;91.80;;;;;;6299932;28;20473;-60
2021/05/20 04:42:03;;;;;;;1.60;1.50;;;12.70;91.40;;;;;;6299588;28;20487;-60
2021/05/20 04:45:07;;;;;;;1.90;1.47;;;12.90;91.20;;;;;;6299402;28;20480;-59
2021/05/20 04:48:10;;;;;;;5.13;1.50;;;13.00;90.80;;;;;;6299424;28;20473;-59
2021/05/20 04:51:12;;;;;;;1.40;1.30;;;13.20;90.40;;;;;;6299361;28;20469;-59
2021/05/20 04:54:15;;;;;;;2.03;1.83;;;13.30;90.10;;;;;;6299614;28;20495;-59
2021/05/20 04:57:19;;;;;;;2.10;1.33;;;13.50;89.80;;;;;;6299441;28;20465;-60
2021/05/20 05:00:23;;;;;;;1.10;1.10;;;13.60;88.70;;;;;;6299485;28;20530;-59
2021/05/20 05:03:26;;;;;;;2.20;1.30;;;13.80;87.40;;;;;;6299382;28;20472;-59
2021/05/20 05:06:29;;;;;;;1.33;1.10;;;13.90;86.40;;;;;;6299452;28;20484;-59
2021/05/20 05:09:32;;;;;;;4.00;1.20;;;14.10;85.80;;;;;;6299127;28;20479;-59
2021/05/20 05:12:36;;;;;;;3.67;1.57;;;14.10;85.20;;;;;;6299262;28;20514;-59
2021/05/20 05:15:38;;;;;;;1.10;0.93;;;14.30;84.80;;;;;;6298651;28;20477;-59
2021/05/20 05:18:41;;;;;;;3.57;1.40;;;14.40;84.80;;;;;;6294890;28;20488;-59
2021/05/20 05:21:44;;;;;;;2.60;0.97;;;14.60;83.50;;;;;;6298902;28;20509;-59
2021/05/20 05:24:47;;;;;;;1.00;0.90;;;14.70;82.10;;;;;;6298809;28;20487;-60
2021/05/20 05:27:50;;;;;;;1.27;0.90;;;15.00;80.40;;;;;;6298689;28;20473;-60
2021/05/20 05:30:53;;;;;;;1.43;0.70;;;15.00;79.80;;;;;;6298800;28;20484;-60
2021/05/20 05:33:56;;;;;;;0.70;0.70;;;15.00;79.30;;;;;;6298881;28;20473;-60
2021/05/20 05:37:00;;;;;;;0.90;0.90;;;15.10;79.00;;;;;;6298710;28;20508;-60
2021/05/20 05:40:04;;;;;;;1.00;0.80;;;15.10;77.60;;;;;;6298722;28;20480;-60
2021/05/20 05:43:08;;;;;;;2.07;0.80;;;15.00;76.80;;;;;;6298559;28;20484;-60
2021/05/20 05:46:10;;;;;;;1.40;0.87;;;14.90;77.50;;;;;;6298805;28;20477;-60
2021/05/20 05:49:15;;;;;;;1.20;0.73;;;14.90;77.90;;;;;;6298491;28;20983;-61
2021/05/20 05:52:20;;;;;;;0.70;0.70;;;14.90;77.70;;;;;;6298685;28;20480;-61
2021/05/20 05:55:23;;;;;;;0.80;0.80;;;14.90;77.30;;;;;;6298464;28;20469;-60
2021/05/20 05:58:26;;;;;;;0.80;0.80;;;14.80;77.50;;;;;;6301932;28;20492;-61
2021/05/20 06:01:29;;;;;;;3.97;1.00;;;15.10;77.80;;;;;;6303314;28;20465;-61
2021/05/20 06:04:33;;;;;;;1.07;0.83;;;15.70;76.70;;;;;;6303340;28;20465;-61
2021/05/20 06:07:35;;;;;;;4.40;1.20;;;16.20;74.40;;;;;;6303377;28;20549;-62
2021/05/20 06:10:38;;;;;;;0.73;0.73;;;16.50;73.50;;;;;;6302868;28;20478;-61
2021/05/20 06:13:42;;;;;;;0.60;0.60;;;16.60;72.00;;;;;;6303095;28;20765;-61
2021/05/20 06:16:45;;;;;;;3.00;0.80;;;16.80;70.40;;;;;;6302899;28;20615;-60
2021/05/20 06:19:47;;;;;;;0.70;0.70;;;17.00;68.70;;;;;;6298731;28;20491;-61
2021/05/20 06:22:50;;;;;;;1.40;0.70;;;17.40;68.00;;;;;;6302971;28;20457;-61
2021/05/20 06:25:53;;;;;;;1.73;0.77;;;17.50;67.40;;;;;;6303248;28;20444;-62
2021/05/20 06:28:57;;;;;;;2.70;1.10;;;17.60;65.80;;;;;;6302443;28;20468;-61
2021/05/20 06:32:00;;;;;;;2.60;0.93;;;17.30;65.70;;;;;;6302597;28;20897;-61
2021/05/20 06:35:03;;;;;;;3.17;1.00;;;17.00;65.90;;;;;;6302874;28;20461;-61
2021/05/20 06:38:07;;;;;;;3.13;1.00;;;17.00;66.40;;;;;;6302421;28;20548;-61
2021/05/20 06:41:10;;;;;;;1.60;0.90;;;17.00;65.40;;;;;;6302308;28;20480;-61
2021/05/20 06:44:13;;;;;;;1.10;1.00;;;16.60;66.40;;;;;;6302382;28;20472;-61
2021/05/20 06:47:16;;;;;;;1.10;0.80;;;16.30;68.20;;;;;;6302220;28;20971;-61
2021/05/20 06:50:19;;;;;;;1.43;1.00;;;16.10;68.20;;;;;;6302162;28;20472;-61
2021/05/20 06:53:24;;;;;;;0.80;0.80;;;16.10;68.60;;;;;;6302849;28;20461;-61
2021/05/20 06:56:29;;;;;;;0.90;0.90;;;16.10;67.70;;;;;;6302431;28;20473;-63
2021/05/20 07:02:53;;;;;;;1.90;1.10;;;16.90;68.50;;;;;;6302308;28;20480;-63
2021/05/20 07:05:56;;;;;;;2.10;1.10;;;18.00;64.30;;;;;;6302073;28;20473;-63
2021/05/20 07:08:59;;;;;;;1.30;1.17;;;18.80;62.10;;;;;;6301012;28;20808;-62
2021/05/20 07:12:02;;;;;;;1.60;1.00;;;20.00;60.30;;;;;;6301984;28;20488;-62
2021/05/20 07:15:08;;;;;;;0.97;0.90;;;21.80;55.80;;;;;;6301597;28;20230;-61
2021/05/20 07:18:10;;;;;;;1.13;0.90;;;22.80;52.50;;;;;;6301541;28;20569;-61
2021/05/20 07:21:13;;;;;;;1.27;0.97;;;23.70;49.40;;;;;;6301442;28;20239;-62
2021/05/20 07:24:17;;;;;;;1.03;0.93;;;24.40;47.80;;;;;;6301412;28;20675;-62
2021/05/20 07:27:25;;;;;;;2.50;0.77;;;24.80;45.10;;;;;;6287414;28;20229;-62
2021/05/20 07:30:29;;;;;;;1.40;0.80;;;25.20;43.80;;;;;;6301146;28;20254;-62
2021/05/20 07:33:32;;;;;;;1.97;0.97;;;25.40;42.70;;;;;;6301462;28;20234;-62
2021/05/20 07:36:36;;;;;;;1.30;0.70;;;25.60;42.60;;;;;;6300939;28;20238;-62
2021/05/20 07:39:38;;;;;;;1.33;0.90;;;25.90;41.40;;;;;;6301128;28;20234;-62
2021/05/20 07:42:42;;;;;;;1.60;0.93;;;25.00;42.20;;;;;;6292060;28;20579;-63
2021/05/20 07:45:46;;;;;;;0.90;0.73;;;23.90;43.70;;;;;;6296668;28;20222;-62
2021/05/20 07:48:49;;;;;;;2.80;0.83;;;23.00;44.50;;;;;;6300176;28;20218;-62
2021/05/20 07:51:52;;;;;;;1.73;0.90;;;22.60;46.00;;;;;;6300320;28;20230;-60
2021/05/20 07:54:56;;;;;;;0.80;0.80;;;22.80;46.90;;;;;;6300599;28;20238;-61
2021/05/20 07:57:59;;;;;;;1.17;0.80;;;23.30;46.00;;;;;;6300798;28;20231;-63
2021/05/20 08:01:03;;;;;;;0.70;0.67;;;23.70;44.90;;;;;;6300162;28;20230;-60
2021/05/20 08:04:09;;;;;;;0.90;0.73;;;24.00;44.00;;;;;;6299727;28;20219;-60
2021/05/20 08:07:17;;;;;;;1.10;0.80;;;23.60;44.20;;;;;;6300001;28;20222;-60
2021/05/20 08:10:45;;;;;;;1.23;0.77;;;23.40;44.10;;;;;;6300154;28;20226;-62
2021/05/20 08:13:48;;;;;;;0.80;0.80;;;22.90;44.30;;;;;;6292963;28;20237;-62
2021/05/20 08:16:51;;;;;;;0.80;0.70;;;22.50;44.50;;;;;;6284208;28;20237;-65
2021/05/20 08:19:54;;;;;;;1.13;1.03;;;22.40;45.60;;;;;;6287705;28;20570;-64
2021/05/20 08:22:57;;;;;;;1.27;1.17;;;22.40;45.70;;;;;;6297867;28;20199;-60
2021/05/20 08:26:01;;;;;;;0.90;0.80;;;22.10;44.70;;;;;;6300299;28;20223;-65
2021/05/20 08:29:04;;;;;;;1.20;0.87;;;21.70;45.80;;;;;;6290814;28;20245;-64
2021/05/20 08:32:08;;;;;;;0.80;0.70;;;21.40;46.50;;;;;;6300014;28;20231;-60
2021/05/20 08:35:12;;;;;;;1.13;0.80;;;21.40;47.50;;;;;;6299837;28;20302;-61
2021/05/20 08:38:14;;;;;;;4.47;0.80;;;21.30;47.20;;;;;;6299735;28;20230;-64
2021/05/20 08:41:20;;;;;;;1.03;0.80;;;21.30;46.60;;;;;;6298961;28;20235;-64
2021/05/20 08:44:25;;;;;;;1.07;0.97;;;21.00;47.00;;;;;;6285488;28;20699;-65
2021/05/20 08:47:42;;;;;;;1.90;0.90;;;20.70;48.00;;;;;;6274689;28;20227;-64
2021/05/20 08:50:45;;;;;;;1.10;1.00;;;20.60;47.40;;;;;;6281767;28;20223;-65
2021/05/20 08:53:48;;;;;;;1.23;1.13;;;20.70;47.90;;;;;;6299094;28;20226;-64
2021/05/20 08:56:52;;;;;;;1.80;0.90;;;20.40;47.20;;;;;;6299548;28;20238;-64
2021/05/20 08:59:54;;;;;;;0.73;0.70;;;20.30;48.10;;;;;;6299161;28;20238;-64
2021/05/20 09:03:06;;;;;;;1.03;0.60;;;20.70;47.80;;;;;;6299201;28;20317;-65
2021/05/20 09:06:09;;;;;;;1.17;0.70;;;20.50;48.10;;;;;;6300210;28;20573;-65
2021/05/20 09:09:14;;;;;;;1.03;0.80;;;20.40;49.50;;;;;;6299050;28;20219;-60
2021/05/20 09:12:20;;;;;;;0.83;0.80;;;20.30;49.30;;;;;;6298884;28;20222;-61
2021/05/20 09:15:26;;;;;;;3.13;0.57;;;20.60;49.20;;;;;;6298682;28;20222;-61
2021/05/20 09:18:39;;;;;;;1.10;0.73;;;20.90;49.50;;;;;;6298914;28;20214;-60
2021/05/20 09:22:04;;;;;;;1.47;0.97;;;21.00;48.80;;;;;;6298885;28;20233;-59
2021/05/20 09:25:08;;;;;;;0.80;0.77;;;21.00;48.70;;;;;;6298451;28;20686;-60
2021/05/20 09:28:12;;;;;;;4.10;1.70;;;20.40;48.00;;;;;;6298937;28;20258;-60
2021/05/20 09:31:16;;;;;;;1.77;1.07;;;20.00;49.00;;;;;;6298454;28;20257;-59
2021/05/20 09:34:22;;;;;;;0.73;0.70;;;19.90;49.50;;;;;;6289658;28;20228;-59
2021/05/20 09:37:25;;;;;;;1.10;0.70;;;19.90;49.60;;;;;;6295647;28;20231;-59
2021/05/20 09:40:31;;;;;;;1.03;0.60;;;20.30;49.60;;;;;;6276511;28;20238;-59
2021/05/20 09:43:35;;;;;;;1.20;0.90;;;20.60;49.90;;;;;;6285022;28;20222;-59
2021/05/20 09:46:43;;;;;;;0.60;0.60;;;20.80;48.00;;;;;;6297967;28;20702;-59
2021/05/20 09:50:01;;;;;;;2.13;0.70;;;20.70;48.00;;;;;;6278623;28;20536;-59
2021/05/20 09:53:08;;;;;;;1.13;0.90;;;20.70;47.30;;;;;;6274551;28;20237;-58
2021/05/20 09:56:11;;;;;;;1.50;0.60;;;20.80;48.20;;;;;;6273303;28;20595;-59
2021/05/20 09:59:15;;;;;;;0.80;0.70;;;20.90;46.70;;;;;;6277987;28;20231;-60
2021/05/20 10:02:18;;;;;;;0.80;0.70;;;20.80;47.10;;;;;;6298188;28;20222;-59
2021/05/20 10:05:26;;;;;;;0.70;0.70;;;21.20;46.80;;;;;;6298214;28;20227;-59
2021/05/20 10:08:32;;;;;;;0.70;0.70;;;21.40;45.60;;;;;;6292162;28;20691;-61
2021/05/20 10:11:36;;;;;;;1.77;0.70;;;21.40;45.10;;;;;;6273675;28;20232;-59
2021/05/20 10:14:39;;;;;;;4.10;0.90;;;21.50;45.80;;;;;;6298039;28;20233;-60
2021/05/20 10:17:42;;;;;;;3.63;0.60;;;22.00;45.70;;;;;;6297541;28;20367;-59
2021/05/20 10:20:48;;;;;;;0.80;0.70;;;22.10;46.30;;;;;;6272833;28;20232;-60
2021/05/20 10:23:54;;;;;;;1.03;0.67;;;21.20;46.80;;;;;;6273242;28;20302;-59
2021/05/20 10:26:57;;;;;;;0.63;0.60;;;20.50;48.50;;;;;;6292808;28;20237;-59
2021/05/20 10:30:01;;;;;;;1.27;0.50;;;19.90;49.70;;;;;;6297684;28;20223;-59
2021/05/20 10:33:04;;;;;;;0.50;0.50;;;19.30;50.80;;;;;;6306274;28;20234;-63
2021/05/20 10:36:21;;;;;;;0.60;0.40;;;18.90;51.30;;;;;;6313326;28;20223;-64
2021/05/20 10:39:24;;;;;;;1.33;0.60;;;18.60;51.70;;;;;;6283873;28;20235;-62
2021/05/20 10:42:38;;;;;;;1.60;0.50;;;18.60;52.80;;;;;;6292519;28;20480;-61
2021/05/20 10:45:42;;;;;;;0.60;0.60;;;18.80;52.20;;;;;;6275704;28;20466;-63
2021/05/20 10:48:50;;;;;;;0.87;0.60;;;19.10;51.60;;;;;;6276997;28;20470;-63
2021/05/20 10:51:54;;;;;;;0.80;0.80;;;19.20;50.30;;;;;;6293153;28;20227;-64
2021/05/20 10:55:00;;;;;;;0.70;0.53;;;19.40;49.50;;;;;;6301745;28;20226;-63
2021/05/20 10:58:04;;;;;;;2.53;1.10;;;19.60;48.10;;;;;;6300008;28;20591;-63
2021/05/20 11:01:09;;;;;;;1.10;0.50;;;19.30;48.40;;;;;;6299749;28;20238;-64
2021/05/20 11:04:11;;;;;;;0.60;0.40;;;19.10;49.00;;;;;;6300449;28;20231;-65
2021/05/20 11:07:15;;;;;;;1.63;1.00;;;19.10;49.00;;;;;;6299866;28;20223;-63
2021/05/20 11:10:21;;;;;;;1.47;0.70;;;19.20;49.90;;;;;;6299797;28;20230;-65
2021/05/20 11:13:36;;;;;;;0.93;0.70;;;19.10;48.80;;;;;;6300904;28;20684;-62
2021/05/20 11:16:39;;;;;;;0.67;0.67;;;19.30;50.00;;;;;;6300647;28;20491;-64
2021/05/20 11:19:42;;;;;;;1.20;0.90;;;19.40;49.70;;;;;;6276396;28;20470;-64
2021/05/20 11:23:24;;;;;;;0.80;0.57;;;19.50;49.00;;;;;;6276614;28;20453;-64
2021/05/20 11:26:33;;;;;;;1.20;1.00;;;19.90;48.50;;;;;;6288612;28;20491;-64
2021/05/20 11:29:37;;;;;;;1.10;1.00;;;20.00;48.40;;;;;;6301474;28;20242;-65
2021/05/20 11:32:49;;;;;;;1.20;0.70;;;19.90;48.80;;;;;;6301335;28;20237;-64
2021/05/20 11:36:10;;;;;;;2.10;0.67;;;19.90;48.70;;;;;;6301420;28;20226;-64
2021/05/20 11:39:15;;;;;;;0.80;0.50;;;20.00;48.40;;;;;;6300936;28;20687;-64
2021/05/20 11:42:22;;;;;;;0.60;0.47;;;19.80;48.50;;;;;;6301091;28;20625;-64
2021/05/20 11:45:27;;;;;;;1.17;0.50;;;19.80;48.30;;;;;;6300977;28;20310;-60
2021/05/20 11:48:30;;;;;;;1.80;0.83;;;20.00;46.90;;;;;;6301023;28;20241;-64
2021/05/20 11:51:44;;;;;;;1.43;0.90;;;20.00;46.60;;;;;;6300575;28;20215;-63
2021/05/20 11:54:50;;;;;;;1.10;0.50;;;20.00;46.80;;;;;;6300386;28;20223;-64
2021/05/20 11:58:00;;;;;;;1.77;0.80;;;20.20;46.00;;;;;;6300583;28;20337;-64
2021/05/20 12:01:03;;;;;;;1.00;0.60;;;20.20;46.40;;;;;;6300277;28;20927;-64
2021/05/20 12:04:07;;;;;;;1.27;0.70;;;20.00;46.30;;;;;;6291555;28;20227;-60
2021/05/20 12:07:21;;;;;;;0.70;0.60;;;20.10;46.20;;;;;;6282227;28;20788;-60
2021/05/20 12:10:28;;;;;;;0.60;0.60;;;20.10;46.10;;;;;;6299999;28;20223;-60
2021/05/20 12:13:36;;;;;;;1.53;0.50;;;20.10;45.90;;;;;;6278268;28;20690;-61
2021/05/20 12:16:39;;;;;;;0.80;0.60;;;20.00;45.90;;;;;;6274534;28;20239;-60
2021/05/20 12:19:45;;;;;;;1.00;0.70;;;19.90;46.70;;;;;;6295063;28;20226;-60
2021/05/20 12:22:48;;;;;;;1.90;0.60;;;19.90;46.70;;;;;;6300039;28;20207;-60
2021/05/20 12:25:53;;;;;;;1.13;0.60;;;20.00;46.70;;;;;;6299837;28;20230;-59
2021/05/20 12:28:57;;;;;;;0.60;0.43;;;19.90;45.90;;;;;;6299707;28;20210;-64
2021/05/20 12:32:00;;;;;;;1.37;0.77;;;19.70;45.70;;;;;;6300333;28;20314;-62
2021/05/20 12:35:14;;;;;;;1.80;0.50;;;19.80;46.20;;;;;;6299397;28;20307;-64
2021/05/20 12:38:20;;;;;;;1.00;0.77;;;19.80;44.70;;;;;;6282642;28;20265;-61
2021/05/20 12:41:35;;;;;;;0.97;0.67;;;19.90;42.90;;;;;;6274488;28;20243;-60
2021/05/20 12:44:38;;;;;;;0.73;0.60;;;20.00;44.50;;;;;;6270134;28;20239;-60
2021/05/20 12:47:48;;;;;;;1.27;0.63;;;20.00;44.00;;;;;;6274642;28;20230;-62
2021/05/20 12:50:52;;;;;;;0.50;0.50;;;20.00;44.60;;;;;;6276993;28;20228;-63
2021/05/20 12:53:57;;;;;;;0.60;0.60;;;19.90;44.20;;;;;;6274562;28;20238;-61
2021/05/20 12:57:06;;;;;;;3.03;1.07;;;20.00;44.70;;;;;;6274341;28;20235;-63
2021/05/20 13:00:10;;;;;;;0.70;0.50;;;20.20;43.90;;;;;;6273985;28;20259;-60
2021/05/20 13:03:13;;;;;;;0.70;0.50;;;20.30;44.10;;;;;;6274037;28;20684;-61
2021/05/20 13:06:24;;;;;;;3.03;0.83;;;20.50;43.30;;;;;;6271920;28;20231;-62
2021/05/20 13:09:29;;;;;;;0.93;0.40;;;20.60;43.40;;;;;;6272361;28;20232;-61
2021/05/20 13:12:43;;;;;;;0.70;0.40;;;20.70;44.20;;;;;;6281834;28;20222;-61
2021/05/20 13:15:51;;;;;;;1.47;0.60;;;20.60;43.90;;;;;;6297710;28;20246;-61
2021/05/20 13:22:41;;;;;;;1.00;0.80;;;20.20;43.70;;;;;;6298790;28;20233;-61
2021/05/20 13:25:49;;;;;;;2.10;0.67;;;20.10;44.40;;;;;;6298911;28;20214;-58
2021/05/20 13:28:52;;;;;;;0.63;0.63;;;19.90;44.20;;;;;;6298813;28;20214;-59
2021/05/20 13:31:55;;;;;;;1.23;0.50;;;19.70;43.80;;;;;;6298475;28;20219;-59
2021/05/20 13:34:58;;;;;;;1.33;0.73;;;19.60;43.60;;;;;;6298598;28;20199;-62
2021/05/20 13:38:00;;;;;;;0.63;0.50;;;19.50;43.90;;;;;;6298730;28;20242;-59
2021/05/20 13:41:03;;;;;;;0.60;0.43;;;19.40;43.60;;;;;;6298548;28;20242;-62
2021/05/20 13:44:07;;;;;;;0.80;0.67;;;19.40;43.20;;;;;;6277085;28;20223;-59
2021/05/20 13:47:10;;;;;;;0.90;0.57;;;19.30;42.80;;;;;;6268876;28;20663;-61
2021/05/20 13:50:13;;;;;;;1.60;0.60;;;19.30;43.00;;;;;;6284358;28;20245;-59
2021/05/20 13:53:16;;;;;;;0.70;0.63;;;19.20;43.30;;;;;;6288219;28;20230;-59
2021/05/20 13:56:18;;;;;;;1.03;0.70;;;19.20;43.60;;;;;;6298369;28;20302;-59
2021/05/20 13:59:22;;;;;;;2.37;0.70;;;19.30;43.70;;;;;;6273261;28;20242;-58
2021/05/20 14:02:32;;;;;;;1.53;0.50;;;19.30;43.60;;;;;;6275184;28;20235;-59
2021/05/20 14:05:34;;;;;;;1.00;0.40;;;19.30;43.90;;;;;;6294325;28;20241;-58
2021/05/20 14:08:41;;;;;;;0.70;0.60;;;19.40;44.00;;;;;;6297382;28;20312;-59
2021/05/20 14:11:44;;;;;;;0.83;0.53;;;19.40;43.80;;;;;;6297343;28;20323;-58
2021/05/20 14:14:49;;;;;;;0.60;0.43;;;19.50;44.00;;;;;;6272990;28;20277;-59
2021/05/20 14:17:51;;;;;;;0.90;0.73;;;19.60;43.70;;;;;;6273635;28;20239;-60
2021/05/20 14:20:54;;;;;;;1.57;0.50;;;19.60;43.50;;;;;;6278061;28;20228;-59
2021/05/20 14:23:58;;;;;;;0.50;0.50;;;19.50;43.40;;;;;;6277936;28;20665;-60
2021/05/20 14:27:01;;;;;;;0.50;0.50;;;19.50;42.90;;;;;;6277995;28;20727;-60
2021/05/20 14:30:06;;;;;;;1.23;0.43;;;19.50;42.70;;;;;;6277926;28;20247;-60
2021/05/20 14:33:10;;;;;;;1.43;0.50;;;19.50;43.70;;;;;;6277906;28;20237;-58
2021/05/20 14:36:13;;;;;;;1.00;0.40;;;19.60;43.40;;;;;;6277827;28;20381;-59
2021/05/20 14:39:16;;;;;;;0.83;0.67;;;19.70;44.10;;;;;;6277636;28;20926;-59
2021/05/20 14:42:21;;;;;;;0.70;0.60;;;19.60;43.40;;;;;;6277077;28;20732;-59
2021/05/20 14:45:28;;;;;;;1.03;0.47;;;19.50;43.40;;;;;;6277016;28;20232;-59
2021/05/20 14:48:33;;;;;;;1.43;0.40;;;19.50;42.00;;;;;;6301087;28;20230;-59
2021/05/20 14:51:38;;;;;;;0.60;0.50;;;19.50;42.60;;;;;;6300915;28;20223;-59
2021/05/20 14:54:47;;;;;;;0.90;0.40;;;19.40;43.50;;;;;;6292784;28;20230;-59
2021/05/20 15:07:54;;;;;;;0.90;0.40;;;19.50;44.40;;;;;;6280602;28;20211;-60
2021/05/20 15:11:05;;;;;;;0.83;0.60;;;19.60;44.40;;;;;;6301808;28;20218;-60
2021/05/20 15:14:11;;;;;;;0.93;0.40;;;19.50;44.10;;;;;;6301773;28;20333;-60
2021/05/20 15:17:17;;;;;;;0.70;0.40;;;19.50;44.30;;;;;;6300950;28;20663;-60
2021/05/20 15:20:20;;;;;;;1.30;0.60;;;19.60;44.70;;;;;;6296556;28;20239;-60
2021/05/20 15:23:27;;;;;;;1.30;0.60;;;19.60;44.10;;;;;;6286063;28;20574;-60
2021/05/20 15:26:30;;;;;;;1.17;0.50;;;19.60;43.70;;;;;;6286635;28;20321;-60
2021/05/20 15:29:33;;;;;;;0.83;0.60;;;19.60;43.60;;;;;;6275529;28;20562;-59
2021/05/20 15:32:37;;;;;;;0.60;0.60;;;19.70;44.30;;;;;;6276570;28;20306;-62
2021/05/20 15:35:42;;;;;;;1.07;0.63;;;19.60;44.40;;;;;;6276398;28;20242;-60
2021/05/20 15:38:45;;;;;;;1.30;1.20;;;19.70;43.50;;;;;;6276357;28;20230;-59
2021/05/20 15:41:49;;;;;;;5.63;0.83;;;19.70;43.20;;;;;;6275727;28;20232;-59
2021/05/20 15:44:54;;;;;;;0.70;0.60;;;19.70;43.20;;;;;;6275550;28;20231;-59
2021/05/20 15:48:05;;;;;;;0.60;0.40;;;19.70;42.20;;;;;;6275921;28;20245;-59
2021/05/20 15:51:07;;;;;;;0.90;0.43;;;19.70;40.70;;;;;;6289899;28;20231;-59
2021/05/20 15:54:11;;;;;;;0.87;0.63;;;19.80;42.00;;;;;;6277972;28;20243;-59
2021/05/20 15:57:13;;;;;;;1.00;0.50;;;19.90;41.10;;;;;;6285797;28;20230;-59
2021/05/20 16:00:18;;;;;;;0.70;0.50;;;19.80;40.00;;;;;;6283794;28;20226;-59
2021/05/20 16:03:22;;;;;;;1.60;0.43;;;19.80;40.30;;;;;;6288273;28;20242;-58
2021/05/20 16:06:24;;;;;;;1.10;0.70;;;19.70;40.50;;;;;;6291792;28;20231;-59
2021/05/20 16:09:33;;;;;;;0.90;0.70;;;19.70;40.30;;;;;;6291649;28;20567;-59
2021/05/20 16:12:43;;;;;;;0.57;0.50;;;19.70;40.40;;;;;;6299789;28;20263;-59
2021/05/20 16:15:46;;;;;;;2.30;0.50;;;19.70;40.90;;;;;;6293012;28;20232;-59
2021/05/20 16:18:49;;;;;;;1.40;0.40;;;19.70;41.80;;;;;;6291479;28;20230;-59
2021/05/20 16:21:52;;;;;;;0.70;0.50;;;19.70;41.70;;;;;;6276369;28;20626;-59